Time;durP1;ratioP1;P1;durP2;ratioP2;P2;SDS_P1;SDS_P2;PMS_P1;PMS_P2;Temp;Humidity;BMP_temperature;BMP_pressure;BME280_temperature;BME280_humidity;BME280_pressure;Samples;Min_cycle;Max_cycle;Signal;HPM_P1;HPM_P2
2023/10/05 00:03:44;;;;;;;;;;;;;;;15.70;100.00;93442.22;4997332;28;20045;-78
2023/10/05 00:09:11;;;;;;;34.13;25.85;;;;;;;15.69;100.00;93438.78;4982069;28;20120;-80
2023/10/05 00:11:36;;;;;;;33.25;25.33;;;;;;;15.68;100.00;93431.19;4996147;28;20046;-79
2023/10/05 00:14:07;;;;;;;34.10;26.38;;;;;;;15.63;100.00;93432.06;5001831;28;20236;-79
2023/10/05 00:16:38;;;;;;;34.17;25.58;;;;;;;15.57;100.00;93427.94;4995874;28;20085;-79
2023/10/05 00:19:10;;;;;;;35.47;25.25;;;;;;;15.54;100.00;93429.31;5004189;28;20046;-80
2023/10/05 00:21:46;;;;;;;32.50;25.35;;;;;;;15.52;100.00;93435.97;5002672;28;20049;-80
2023/10/05 00:24:12;;;;;;;36.10;26.08;;;;;;;15.52;100.00;93435.97;5003394;28;20048;-79
2023/10/05 00:26:38;;;;;;;32.25;24.85;;;;;;;15.56;100.00;93443.00;5006549;28;20501;-80
2023/10/05 00:29:15;;;;;;;33.35;26.27;;;;;;;15.53;100.00;93442.78;5007159;28;20125;-80
2023/10/05 00:31:42;;;;;;;35.53;24.42;;;;;;;15.52;100.00;93449.16;4989846;28;20054;-80
2023/10/05 00:34:24;;;;;;;31.58;25.10;;;;;;;15.53;100.00;93440.16;5003584;28;20331;-80
2023/10/05 00:36:53;;;;;;;34.03;24.10;;;;;;;15.53;100.00;93437.53;5003268;28;20560;-80
2023/10/05 00:39:21;;;;;;;34.42;24.50;;;;;;;15.54;100.00;93434.59;4993327;28;20398;-80
2023/10/05 00:44:30;;;;;;;29.45;22.77;;;;;;;15.51;100.00;93444.94;5018369;28;20038;-80
2023/10/05 00:47:00;;;;;;;29.40;23.27;;;;;;;15.50;100.00;93432.84;5002601;28;20112;-80
2023/10/05 00:49:30;;;;;;;32.85;23.05;;;;;;;15.51;100.00;93434.38;4994868;28;20049;-80
2023/10/05 00:52:11;;;;;;;31.00;22.20;;;;;;;15.50;100.00;93433.63;5003240;28;20034;-80
2023/10/05 00:54:40;;;;;;;29.17;21.95;;;;;;;15.45;100.00;93431.09;4989075;28;20034;-80
2023/10/05 00:57:09;;;;;;;30.27;23.25;;;;;;;15.46;100.00;93432.63;4993356;28;20050;-80
2023/10/05 00:59:36;;;;;;;30.92;21.60;;;;;;;15.47;100.00;93431.56;4994873;28;20034;-80
2023/10/05 01:04:34;;;;;;;26.52;20.67;;;;;;;15.49;100.00;93436.53;4996731;28;20046;-81
2023/10/05 01:07:17;;;;;;;30.02;21.45;;;;;;;15.48;100.00;93429.72;5015304;28;20036;-81
2023/10/05 01:14:52;;;;;;;28.95;20.73;;;;;;;15.45;100.00;93425.03;5009911;28;20023;-80
2023/10/05 01:17:25;;;;;;;29.23;21.33;;;;;;;15.42;100.00;93426.38;5003370;28;20042;-80
2023/10/05 01:19:58;;;;;;;28.80;21.75;;;;;;;15.40;100.00;93420.59;5000777;28;20035;-81
2023/10/05 01:22:32;;;;;;;34.70;21.75;;;;;;;15.43;100.00;93429.81;4996672;28;20351;-80
2023/10/05 01:24:59;;;;;;;29.85;21.52;;;;;;;15.45;100.00;93425.03;4998190;28;20120;-80
2023/10/05 01:27:29;;;;;;;29.30;20.77;;;;;;;15.44;100.00;93426.84;4994018;28;20117;-79
2023/10/05 01:29:59;;;;;;;28.27;21.88;;;;;;;15.39;100.00;93417.19;5002345;28;20061;-80
2023/10/05 01:32:26;;;;;;;27.80;20.55;;;;;;;15.44;100.00;93415.53;5002140;28;20089;-79
2023/10/05 01:34:52;;;;;;;29.80;21.08;;;;;;;15.40;100.00;93408.22;5002847;28;20033;-80
2023/10/05 01:37:22;;;;;;;30.20;20.05;;;;;;;15.48;100.00;93414.66;5001336;28;20106;-80
2023/10/05 01:39:52;;;;;;;27.60;20.83;;;;;;;15.47;100.00;93421.03;4999545;28;20042;-80
2023/10/05 01:42:18;;;;;;;27.50;21.08;;;;;;;15.47;100.00;93418.38;4990463;28;20030;-80
2023/10/05 01:44:47;;;;;;;27.33;20.83;;;;;;;15.44;100.00;93411.03;4994409;28;20026;-80
2023/10/05 01:47:15;;;;;;;35.72;19.85;;;;;;;15.45;100.00;93415.25;5002032;28;20046;-80
2023/10/05 01:49:41;;;;;;;28.10;20.08;;;;;;;15.40;100.00;93425.88;4994393;28;20036;-80
2023/10/05 01:52:07;;;;;;;28.40;21.08;;;;;;;15.39;100.00;93421.69;4994010;28;20038;-80
2023/10/05 01:54:34;;;;;;;26.73;19.23;;;;;;;15.36;100.00;93417.00;4998182;28;20037;-80
2023/10/05 01:57:12;;;;;;;25.58;19.83;;;;;;;15.33;100.00;93413.09;5002481;28;20041;-80
2023/10/05 01:59:39;;;;;;;26.60;19.48;;;;;;;15.32;100.00;93410.75;5002870;28;20046;-80
2023/10/05 02:02:10;;;;;;;27.52;20.42;;;;;;;15.37;100.00;93410.66;5001684;28;20121;-80
2023/10/05 02:04:49;;;;;;;25.65;19.73;;;;;;;15.41;100.00;93415.03;4993999;28;20402;-80
2023/10/05 02:07:15;;;;;;;28.30;20.63;;;;;;;15.34;100.00;93416.50;4992022;28;20502;-80
2023/10/05 02:09:41;;;;;;;30.35;20.80;;;;;;;15.32;100.00;93408.13;4992418;28;20589;-80
2023/10/05 02:12:07;;;;;;;28.02;20.70;;;;;;;15.33;100.00;93420.22;4994955;28;20409;-80
2023/10/05 02:14:35;;;;;;;26.70;20.25;;;;;;;15.29;100.00;93413.94;5003927;28;20046;-81
2023/10/05 02:17:03;;;;;;;31.33;19.55;;;;;;;15.32;100.00;93411.53;5003440;28;20038;-79
2023/10/05 02:19:30;;;;;;;24.65;20.20;;;;;;;15.32;100.00;93411.53;5007456;28;20510;-79
2023/10/05 02:21:58;;;;;;;28.42;20.25;;;;;;;15.38;100.00;93409.59;5003273;28;20335;-79
2023/10/05 02:24:25;;;;;;;27.90;19.10;;;;;;;15.34;100.00;93408.59;4998077;28;20115;-79
2023/10/05 02:29:31;;;;;;;26.23;18.98;;;;;;;15.38;100.00;93415.63;4995324;28;20486;-79
2023/10/05 02:37:07;;;;;;;26.38;18.10;;;;;;;15.36;100.00;93406.47;5001156;28;20034;-81
2023/10/05 02:39:37;;;;;;;23.92;18.38;;;;;;;15.30;100.00;93405.75;5005078;28;20034;-79
2023/10/05 02:42:11;;;;;;;25.10;17.75;;;;;;;15.26;100.00;93410.03;5011344;28;20073;-80
2023/10/05 02:44:37;;;;;;;28.85;18.67;;;;;;;15.20;100.00;93409.38;5022979;28;20097;-81
2023/10/05 02:47:24;;;;;;;24.98;18.13;;;;;;;15.17;100.00;93414.44;5015311;28;20026;-80
2023/10/05 02:49:49;;;;;;;29.70;19.65;;;;;;;15.12;100.00;93407.41;5003466;28;20050;-80
2023/10/05 02:52:16;;;;;;;25.75;19.13;;;;;;;15.11;100.00;93413.75;5003731;28;20059;-80
2023/10/05 02:54:47;;;;;;;23.05;18.00;;;;;;;15.07;100.00;93410.13;5003440;28;20117;-80
2023/10/05 02:57:16;;;;;;;29.08;20.45;;;;;;;15.19;100.00;93409.66;5018978;28;20034;-78
2023/10/05 02:59:43;;;;;;;34.67;22.00;;;;;;;15.11;100.00;93397.94;5000281;28;20038;-79
2023/10/05 03:02:11;;;;;;;32.60;23.33;;;;;;;15.15;100.00;93409.47;5001161;28;20056;-80
2023/10/05 03:04:47;;;;;;;36.05;23.55;;;;;;;15.14;100.00;93407.13;5004005;28;20050;-80
2023/10/05 03:07:17;;;;;;;33.20;22.75;;;;;;;15.15;100.00;93406.84;5030928;28;20056;-80
2023/10/05 03:09:47;;;;;;;34.20;24.85;;;;;;;15.15;100.00;93403.41;5017064;28;20034;-80
2023/10/05 03:12:14;;;;;;;33.33;23.92;;;;;;;15.15;100.00;93401.56;5031473;28;20037;-80
2023/10/05 03:14:44;;;;;;;33.95;23.80;;;;;;;15.16;100.00;93397.06;5015823;28;20034;-80
2023/10/05 03:17:18;;;;;;;33.08;23.70;;;;;;;15.15;100.00;93404.19;5031807;28;20045;-80
2023/10/05 03:19:44;;;;;;;34.92;24.30;;;;;;;15.16;100.00;93392.56;5007596;28;20038;-80
2023/10/05 03:22:13;;;;;;;32.38;23.85;;;;;;;15.15;100.00;93392.84;5016576;28;20052;-80
2023/10/05 03:24:44;;;;;;;29.80;23.67;;;;;;;15.16;100.00;93399.69;5008489;28;20482;-80
2023/10/05 03:27:11;;;;;;;31.02;22.42;;;;;;;15.14;100.00;93394.72;5032094;28;20493;-81
2023/10/05 03:29:39;;;;;;;32.55;23.35;;;;;;;15.17;100.00;93399.38;5015068;28;20028;-81
2023/10/05 03:34:37;;;;;;;34.78;23.63;;;;;;;15.16;100.00;93392.56;5014698;28;20050;-80
2023/10/05 03:37:04;;;;;;;35.42;23.65;;;;;;;15.17;100.00;93391.47;5031893;28;20128;-81
2023/10/05 03:39:33;;;;;;;30.95;23.92;;;;;;;15.18;100.00;93394.91;5014651;28;20036;-80
2023/10/05 03:42:00;;;;;;;34.05;22.80;;;;;;;15.20;100.00;93395.41;5015352;28;20596;-81
2023/10/05 03:44:26;;;;;;;34.15;22.42;;;;;;;15.18;100.00;93389.66;5014366;28;20101;-81
2023/10/05 03:46:52;;;;;;;29.50;22.00;;;;;;;15.23;100.00;93391.41;4998428;28;20037;-80
2023/10/05 03:49:21;;;;;;;32.95;23.15;;;;;;;15.20;100.00;93398.81;5014743;28;20021;-81
2023/10/05 03:51:50;;;;;;;34.97;22.73;;;;;;;15.17;100.00;93394.13;5031009;28;20045;-81
2023/10/05 03:54:24;;;;;;;35.60;22.98;;;;;;;15.15;100.00;93396.28;5014728;28;20062;-81
2023/10/05 03:56:59;;;;;;;33.17;22.65;;;;;;;15.14;100.00;93393.94;5013758;28;20076;-79
2023/10/05 03:59:25;;;;;;;31.67;21.65;;;;;;;15.14;100.00;93389.44;5020976;28;20109;-80
2023/10/05 04:01:51;;;;;;;31.73;22.33;;;;;;;15.13;100.00;93392.34;5014409;28;20665;-80
2023/10/05 04:04:21;;;;;;;33.72;22.17;;;;;;;15.09;100.00;93392.16;5015460;28;20145;-81
2023/10/05 04:06:51;;;;;;;32.35;22.30;;;;;;;15.09;100.00;93394.03;5014091;28;20445;-79
2023/10/05 04:09:19;;;;;;;30.70;20.13;;;;;;;15.08;100.00;93395.88;5013822;28;20525;-80
2023/10/05 04:11:45;;;;;;;30.70;21.55;;;;;;;15.09;100.00;93386.91;5014267;28;20498;-80
2023/10/05 04:14:12;;;;;;;28.88;21.52;;;;;;;15.08;100.00;93382.69;5014258;28;20064;-79
2023/10/05 04:16:38;;;;;;;29.80;20.30;;;;;;;15.08;100.00;93380.03;5015342;28;20042;-80
2023/10/05 04:19:04;;;;;;;26.77;19.70;;;;;;;15.08;100.00;93384.53;5014936;28;20025;-80
2023/10/05 04:21:30;;;;;;;26.15;19.85;;;;;;;15.09;100.00;93380.84;5014621;28;20148;-80
2023/10/05 04:23:59;;;;;;;26.73;19.38;;;;;;;15.10;100.00;93382.41;5015401;28;20053;-80
2023/10/05 04:26:32;;;;;;;28.80;20.33;;;;;;;15.10;100.00;93377.91;5013652;28;20038;-80
2023/10/05 04:29:04;;;;;;;30.85;20.73;;;;;;;15.09;100.00;93376.34;5012160;28;20034;-80
2023/10/05 04:31:31;;;;;;;29.77;20.17;;;;;;;15.10;100.00;93382.41;5011872;28;20041;-81
2023/10/05 04:33:57;;;;;;;26.85;18.90;;;;;;;15.08;100.00;93381.91;5010390;28;20112;-81
2023/10/05 04:36:24;;;;;;;28.60;18.50;;;;;;;15.10;100.00;93396.34;5010117;28;20096;-80
2023/10/05 04:38:54;;;;;;;23.88;17.75;;;;;;;15.10;100.00;93393.72;5010263;28;20036;-81
2023/10/05 04:41:28;;;;;;;30.08;19.05;;;;;;;15.08;100.00;93395.09;5010279;28;20088;-80
2023/10/05 04:43:57;;;;;;;27.48;19.77;;;;;;;15.06;100.00;93387.47;5008889;28;20037;-81
2023/10/05 04:46:23;;;;;;;27.80;18.83;;;;;;;15.08;100.00;93393.22;5011468;28;20120;-81
2023/10/05 04:48:55;;;;;;;24.80;17.27;;;;;;;15.09;100.00;93400.09;5010678;28;20056;-79
2023/10/05 04:51:32;;;;;;;27.77;18.10;;;;;;;15.06;100.00;93395.38;5024325;28;20033;-78
2023/10/05 04:53:59;;;;;;;26.77;17.48;;;;;;;15.10;100.00;93398.22;4990844;28;20568;-78
2023/10/05 04:56:40;;;;;;;25.83;18.42;;;;;;;15.11;100.00;93402.44;5012197;28;20026;-79
2023/10/05 05:07:06;;;;;;;25.23;19.10;;;;;;;15.08;100.00;93400.38;5010704;28;20405;-79
2023/10/05 05:09:37;;;;;;;28.33;18.50;;;;;;;15.08;100.00;93395.88;5012465;28;20030;-80
2023/10/05 05:12:17;;;;;;;29.02;18.00;;;;;;;15.08;100.00;93400.38;5013253;28;20038;-79
2023/10/05 05:14:53;;;;;;;22.75;16.45;;;;;;;15.06;100.00;93390.09;5011919;28;20034;-79
2023/10/05 05:17:19;;;;;;;26.45;17.38;;;;;;;15.09;100.00;93397.44;5017107;28;20508;-80
2023/10/05 05:19:46;;;;;;;21.98;17.02;;;;;;;15.07;100.00;93391.69;5008059;28;20510;-80
2023/10/05 05:22:13;;;;;;;27.38;17.10;;;;;;;15.08;100.00;93401.13;5013623;28;20042;-80
2023/10/05 05:24:39;;;;;;;24.65;16.75;;;;;;;15.08;100.00;93398.50;5010927;28;20026;-80
2023/10/05 05:29:45;;;;;;;23.35;16.83;;;;;;;15.09;100.00;93402.72;5010679;28;20080;-81
2023/10/05 05:32:11;;;;;;;23.13;16.15;;;;;;;15.08;100.00;93403.00;5012639;28;20042;-81
2023/10/05 05:34:37;;;;;;;26.73;17.50;;;;;;;15.10;100.00;93409.53;5013856;28;20036;-82
2023/10/05 05:37:07;;;;;;;26.08;17.30;;;;;;;15.09;100.00;93408.00;5013762;28;20565;-80
2023/10/05 05:39:39;;;;;;;24.42;16.15;;;;;;;15.11;100.00;93405.84;5010512;28;20049;-81
2023/10/05 05:42:09;;;;;;;26.13;15.88;;;;;;;15.13;100.00;93414.25;5014788;28;20520;-81
2023/10/05 05:44:38;;;;;;;22.08;15.88;;;;;;;15.13;100.00;93406.34;5006798;28;20038;-81
2023/10/05 05:47:10;;;;;;;22.77;15.95;;;;;;;15.14;100.00;93412.41;5018837;28;20098;-82
2023/10/05 05:49:40;;;;;;;24.00;16.55;;;;;;;15.08;100.00;93416.97;5018592;28;20041;-81
2023/10/05 05:52:10;;;;;;;22.90;16.27;;;;;;;15.14;100.00;93418.44;5017319;28;20084;-81
2023/10/05 05:54:36;;;;;;;25.00;16.77;;;;;;;15.15;100.00;93417.38;5014877;28;20788;-82
2023/10/05 05:57:05;;;;;;;27.73;17.17;;;;;;;15.15;100.00;93419.22;5016013;28;20034;-82
2023/10/05 05:59:31;;;;;;;23.98;16.38;;;;;;;15.16;100.00;93416.28;5014438;28;20317;-82
2023/10/05 06:01:57;;;;;;;23.90;16.73;;;;;;;15.19;100.00;93418.34;5016289;28;20056;-82
2023/10/05 06:04:25;;;;;;;30.15;17.27;;;;;;;15.18;100.00;93411.53;5015802;28;20046;-80
2023/10/05 06:06:51;;;;;;;24.83;16.17;;;;;;;15.23;100.00;93425.69;5016165;28;20034;-81
2023/10/05 06:09:19;;;;;;;23.90;16.52;;;;;;;15.26;100.00;93425.88;4999636;28;20056;-81
2023/10/05 06:11:48;;;;;;;26.90;15.82;;;;;;;15.27;100.00;93429.31;5016240;28;20436;-80
2023/10/05 06:14:17;;;;;;;23.75;15.27;;;;;;;15.30;100.00;93426.09;5014160;28;20501;-80
2023/10/05 06:16:42;;;;;;;20.42;16.27;;;;;;;15.34;100.00;93424.44;5012703;28;20497;-80
2023/10/05 06:19:08;;;;;;;20.30;15.15;;;;;;;15.39;100.00;93432.25;5032682;28;20064;-82
2023/10/05 06:21:34;;;;;;;22.58;16.00;;;;;;;15.45;100.00;93428.44;5015323;28;20040;-83
2023/10/05 06:24:02;;;;;;;23.90;15.20;;;;;;;15.49;100.00;93425.97;5016026;28;20385;-82
2023/10/05 06:26:29;;;;;;;33.72;20.50;;;;;;;15.56;100.00;93426.41;5017195;28;20034;-81
2023/10/05 06:28:56;;;;;;;31.23;21.48;;;;;;;15.53;100.00;93437.53;5017569;28;20042;-81
2023/10/05 06:31:22;;;;;;;33.83;20.92;;;;;;;15.65;100.00;93435.19;5016484;28;20037;-81
2023/10/05 06:33:48;;;;;;;31.10;21.67;;;;;;;15.87;100.00;93431.84;5016664;28;20049;-82
2023/10/05 06:36:14;;;;;;;29.70;19.85;;;;;;;16.10;100.00;93429.28;5015533;28;20030;-81
2023/10/05 06:38:39;;;;;;;28.25;21.17;;;;;;;16.17;100.00;93424.38;5016742;28;20049;-81
2023/10/05 06:41:05;;;;;;;27.73;19.33;;;;;;;16.31;100.00;93419.06;5015456;28;20038;-82
2023/10/05 06:43:38;;;;;;;28.00;20.02;;;;;;;16.48;100.00;93415.75;5017206;28;20037;-81
2023/10/05 06:46:17;;;;;;;32.22;21.08;;;;;;;16.50;100.00;93416.25;5017021;28;20045;-81
2023/10/05 06:48:46;;;;;;;31.08;21.45;;;;;;;16.41;100.00;93424.09;5009235;28;20042;-81
2023/10/05 06:51:13;;;;;;;32.72;21.73;;;;;;;16.26;100.00;93421.78;5016358;28;20109;-80
2023/10/05 06:53:39;;;;;;;27.80;20.95;;;;;;;16.13;100.00;93439.25;5008601;28;20042;-81
2023/10/05 06:56:04;;;;;;;27.13;20.42;;;;;;;16.10;100.00;93440.63;5014567;28;20033;-80
2023/10/05 06:58:30;;;;;;;31.23;21.88;;;;;;;16.07;100.00;93438.56;5016192;28;20038;-81
2023/10/05 07:00:56;;;;;;;32.03;22.58;;;;;;;16.04;100.00;93431.25;5032616;28;20338;-81
2023/10/05 07:03:21;;;;;;;29.65;21.85;;;;;;;16.09;100.00;93422.44;5016780;28;20065;-82
2023/10/05 07:05:47;;;;;;;27.00;21.13;;;;;;;15.97;100.00;93415.03;5016361;28;20069;-81
2023/10/05 07:08:14;;;;;;;30.48;20.55;;;;;;;16.01;100.00;93416.00;5016882;28;20034;-81
2023/10/05 07:10:42;;;;;;;27.08;20.20;;;;;;;16.09;100.00;93411.88;5016756;28;20702;-81
2023/10/05 07:13:09;;;;;;;28.73;21.13;;;;;;;16.06;100.00;93415.13;5016792;28;20037;-81
2023/10/05 07:15:35;;;;;;;32.13;21.55;;;;;;;15.98;100.00;93424.50;5015903;28;20033;-81
2023/10/05 07:18:01;;;;;;;29.52;19.92;;;;;;;16.13;100.00;93426.06;5015809;28;20133;-82
2023/10/05 07:20:27;;;;;;;28.17;19.45;;;;;;;16.19;100.00;93423.00;5017820;28;20081;-81
2023/10/05 07:22:53;;;;;;;31.17;20.40;;;;;;;16.20;100.00;93427.19;5017640;28;20041;-81
2023/10/05 07:25:18;;;;;;;30.40;20.27;;;;;;;16.15;100.00;93437.88;5016849;28;20076;-81
2023/10/05 07:27:44;;;;;;;30.13;21.10;;;;;;;16.19;100.00;93432.81;5017242;28;20125;-82
2023/10/05 07:30:10;;;;;;;33.78;21.65;;;;;;;16.12;100.00;93432.41;5000015;28;20034;-82
2023/10/05 07:32:37;;;;;;;30.20;22.15;;;;;;;16.05;100.00;93432.03;5007441;28;20060;-82
2023/10/05 07:35:05;;;;;;;29.55;22.63;;;;;;;16.03;100.00;93424.41;5017005;28;20075;-82
2023/10/05 07:37:31;;;;;;;31.92;23.63;;;;;;;15.96;100.00;93419.53;5016722;28;20180;-82
2023/10/05 07:39:58;;;;;;;34.83;23.40;;;;;;;15.98;100.00;93425.28;4999338;28;20030;-82
2023/10/05 07:42:25;;;;;;;29.30;20.25;;;;;;;15.95;100.00;93433.81;5016350;28;20037;-82
2023/10/05 07:44:50;;;;;;;25.00;18.48;;;;;;;15.91;100.00;93432.84;5015765;28;20030;-81
2023/10/05 07:47:16;;;;;;;29.08;19.05;;;;;;;16.01;100.00;93440.56;5023311;28;20041;-81
2023/10/05 07:49:42;;;;;;;26.58;19.15;;;;;;;16.07;100.00;93443.09;5016127;28;20037;-81
2023/10/05 07:52:12;;;;;;;29.20;18.80;;;;;;;16.21;100.00;93449.91;5014451;28;20041;-81
2023/10/05 07:54:38;;;;;;;30.00;18.33;;;;;;;16.27;100.00;93449.78;5031164;28;20088;-82
2023/10/05 07:57:10;;;;;;;28.63;18.20;;;;;;;16.38;100.00;93446.63;5014625;28;20409;-82
2023/10/05 07:59:38;;;;;;;27.70;18.92;;;;;;;16.47;100.00;93445.91;5015345;28;20037;-81
2023/10/05 08:02:03;;;;;;;29.90;18.63;;;;;;;16.57;100.00;93443.03;5016025;28;20030;-82
2023/10/05 08:04:29;;;;;;;24.48;17.45;;;;;;;16.65;100.00;93439.69;5016080;28;20042;-81
2023/10/05 08:06:54;;;;;;;29.73;18.60;;;;;;;16.67;100.00;93450.75;5016144;28;20046;-81
2023/10/05 08:09:23;;;;;;;26.38;18.83;;;;;;;16.62;100.00;93450.88;5031505;28;20064;-82
2023/10/05 08:11:50;;;;;;;26.98;18.65;;;;;;;16.71;100.00;93448.28;5014655;28;20053;-82
2023/10/05 08:14:20;;;;;;;26.45;18.25;;;;;;;16.93;100.00;93448.31;5031285;28;20045;-82
2023/10/05 08:16:49;;;;;;;26.75;17.55;;;;;;;17.19;100.00;93448.44;5016207;28;20042;-82
2023/10/05 08:19:21;;;;;;;24.35;17.15;;;;;;;17.62;100.00;93449.72;5014529;28;20477;-82
2023/10/05 08:21:47;;;;;;;26.23;17.67;;;;;;;18.08;100.00;93451.91;5023493;28;20045;-81
2023/10/05 08:24:17;;;;;;;25.70;17.55;;;;;;;18.25;100.00;93450.38;5015359;28;20110;-82
2023/10/05 08:26:43;;;;;;;23.40;15.77;;;;;;;18.54;100.00;93443.69;5007001;28;20038;-83
2023/10/05 08:29:09;;;;;;;22.52;16.98;;;;;;;18.49;100.00;93460.53;5015193;28;20022;-81
2023/10/05 08:31:35;;;;;;;30.95;17.70;;;;;;;18.51;100.00;93459.13;5015399;28;20049;-82
2023/10/05 08:34:03;;;;;;;22.50;15.27;;;;;;;18.40;100.00;93465.84;5011758;28;20317;-82
2023/10/05 08:36:30;;;;;;;22.63;17.33;;;;;;;18.34;100.00;93469.72;5010059;28;20095;-81
2023/10/05 08:38:56;;;;;;;24.67;15.68;;;;;;;18.59;100.00;93467.41;5008389;28;20109;-82
2023/10/05 08:41:36;;;;;;;26.98;16.52;;;;;;;18.84;100.00;93461.31;4997384;28;20673;-82
2023/10/05 08:44:06;;;;;;;22.02;17.15;;;;;;;18.76;100.00;93463.97;5013471;28;20040;-83
2023/10/05 08:46:52;;;;;;;22.63;15.85;;;;;;;18.57;100.00;93457.09;5013492;28;20084;-81
2023/10/05 08:49:17;;;;;;;22.52;15.82;;;;;;;18.31;100.00;93462.41;5013819;28;20065;-82
2023/10/05 08:51:44;;;;;;;23.80;16.55;;;;;;;18.22;100.00;93466.91;4997918;28;20033;-82
2023/10/05 08:54:11;;;;;;;25.67;16.80;;;;;;;18.28;100.00;93471.75;5014624;28;20038;-82
2023/10/05 08:56:45;;;;;;;30.70;16.02;;;;;;;18.43;100.00;93472.38;5013997;28;20052;-81
2023/10/05 08:59:19;;;;;;;23.55;16.42;;;;;;;18.30;100.00;93464.25;5014725;28;20389;-81
2023/10/05 09:01:46;;;;;;;22.92;16.35;;;;;;;18.33;100.00;93470.81;5015039;28;20050;-81
2023/10/05 09:06:55;;;;;;;22.95;15.52;;;;;;;18.35;100.00;93466.00;5009919;28;20045;-81
2023/10/05 09:09:38;;;;;;;32.80;17.38;;;;;;;18.25;100.00;93472.34;5012790;28;20189;-81
2023/10/05 09:12:18;;;;;;;22.48;16.38;;;;;;;18.13;100.00;93458.16;5005830;28;20089;-81
2023/10/05 09:14:45;;;;;;;23.88;16.65;;;;;;;18.33;100.00;93467.38;5011904;28;20030;-82
2023/10/05 09:17:15;;;;;;;27.70;15.38;;;;;;;18.34;100.00;93461.00;5029309;28;20037;-81
2023/10/05 09:19:43;;;;;;;27.48;16.38;;;;;;;18.45;100.00;93449.75;5009891;28;20062;-82
2023/10/05 09:24:34;;;;;;;29.23;17.52;;;;;;;17.86;100.00;93454.66;5018745;28;20065;-81
2023/10/05 09:27:14;;;;;;;23.52;16.52;;;;;;;18.03;100.00;93448.63;5016454;28;20030;-80
2023/10/05 09:29:41;;;;;;;24.63;15.15;;;;;;;18.30;100.00;93452.88;5033068;28;20034;-81
2023/10/05 09:32:22;;;;;;;19.27;14.63;;;;;;;18.47;100.00;93458.19;5019097;28;20037;-81
2023/10/05 09:34:51;;;;;;;27.23;16.52;;;;;;;18.46;100.00;93461.16;5017600;28;20393;-81
2023/10/05 09:37:23;;;;;;;24.67;15.23;;;;;;;18.36;100.00;93461.47;5014939;28;20033;-82
2023/10/05 09:39:49;;;;;;;;;;;;;;;18.21;100.00;93457.38;5020111;28;20040;-81
2023/10/05 09:42:25;;;;;;;19.77;15.15;;;;;;;18.12;100.00;93459.22;5017870;28;19918;-82
2023/10/05 09:44:53;;;;;;;20.23;14.93;;;;;;;18.78;100.00;93454.63;5032809;28;20041;-82
2023/10/05 09:47:27;;;;;;;23.25;15.15;;;;;;;19.05;100.00;93465.97;5020143;28;20041;-82
2023/10/05 09:49:55;;;;;;;25.52;15.38;;;;;;;19.03;100.00;93463.66;5020549;28;20714;-82
2023/10/05 09:52:24;;;;;;;22.80;14.15;;;;;;;18.96;100.00;93452.75;5020394;28;20034;-82
2023/10/05 09:54:50;;;;;;;17.98;14.57;;;;;;;18.71;100.00;93446.31;5019444;28;20073;-82
2023/10/05 09:57:17;;;;;;;23.05;15.15;;;;;;;18.46;100.00;93446.03;5020058;28;20034;-82
2023/10/05 09:59:45;;;;;;;20.92;15.88;;;;;;;18.29;100.00;93440.72;5019319;28;20034;-82
2023/10/05 10:02:18;;;;;;;22.10;15.50;;;;;;;18.22;100.00;93441.19;5020226;28;20034;-81
2023/10/05 10:04:46;;;;;;;26.42;16.70;;;;;;;18.21;100.00;93444.13;5020254;28;20096;-80
2023/10/05 10:07:22;;;;;;;24.83;16.20;;;;;;;18.16;100.00;93436.34;5019150;28;20034;-81
2023/10/05 10:09:53;;;;;;;25.70;17.17;;;;;;;18.23;100.00;93437.44;5019419;28;20038;-81
2023/10/05 10:12:33;;;;;;;26.75;17.02;;;;;;;18.09;100.00;93432.25;5033472;28;20038;-80
2023/10/05 10:14:59;;;;;;;24.98;17.70;;;;;;;18.33;100.00;93427.59;5014753;28;20038;-80
2023/10/05 10:17:33;;;;;;;22.20;16.70;;;;;;;18.53;100.00;93416.41;5019384;28;20049;-81
2023/10/05 10:23:00;;;;;;;27.42;16.67;;;;;;;18.72;100.00;93426.69;5013895;28;20041;-80
2023/10/05 10:25:30;;;;;;;21.75;15.30;;;;;;;18.84;100.00;93424.19;5019721;28;20041;-80
2023/10/05 10:28:16;;;;;;;23.98;15.93;;;;;;;18.84;100.00;93418.88;5019192;28;20038;-81
2023/10/05 10:31:13;;;;;;;21.60;14.32;;;;;;;19.33;100.00;93424.69;5016404;28;20121;-81
2023/10/05 10:33:40;;;;;;;24.23;15.18;;;;;;;19.64;100.00;93426.31;5007406;28;20081;-82
2023/10/05 10:36:18;;;;;;;23.15;15.60;;;;;;;19.89;100.00;93429.19;5017597;28;20473;-81
2023/10/05 10:38:51;;;;;;;18.25;14.00;;;;;;;20.09;100.00;93427.66;5011338;28;20034;-83
2023/10/05 10:41:20;;;;;;;20.00;15.02;;;;;;;20.14;100.00;93430.91;5015709;28;20125;-81
2023/10/05 10:43:49;;;;;;;22.85;14.88;;;;;;;20.20;100.00;93430.72;5013803;28;20181;-82
2023/10/05 10:46:34;;;;;;;23.17;16.10;;;;;;;20.11;100.00;93436.09;5012617;28;20042;-82
2023/10/05 10:49:00;;;;;;;23.02;15.38;;;;;;;20.07;100.00;93429.88;5017728;28;20038;-82
2023/10/05 10:51:27;;;;;;;20.48;15.10;;;;;;;20.12;100.00;93416.38;5015290;28;20026;-81
2023/10/05 10:53:56;;;;;;;21.30;16.23;;;;;;;20.28;100.00;93420.03;5015163;28;20038;-83
2023/10/05 10:56:30;;;;;;;20.80;15.73;;;;;;;20.23;100.00;93422.09;5014827;28;20567;-81
2023/10/05 10:59:12;;;;;;;17.75;12.23;;;;;;;20.25;100.00;93406.63;5013901;28;20041;-81
2023/10/05 11:01:44;;;;;;;22.27;15.68;;;;;;;20.46;100.00;93415.34;5007249;28;20045;-81
2023/10/05 11:04:26;;;;;;;21.73;14.75;;;;;;;20.15;100.00;93421.84;5015360;28;20053;-82
2023/10/05 11:07:00;;;;;;;22.70;17.00;;;;;;;19.97;100.00;93420.38;5014728;28;20034;-82
2023/10/05 11:09:35;;;;;;;25.58;16.52;;;;;;;20.27;100.00;93413.16;5016257;28;20056;-82
2023/10/05 11:12:10;;;;;;;23.75;16.60;;;;;;;20.07;100.00;93408.59;5017445;28;20038;-82
2023/10/05 11:14:37;;;;;;;20.17;14.10;;;;;;;20.34;100.00;93402.00;5016835;28;20042;-81
2023/10/05 11:17:11;;;;;;;27.25;13.95;;;;;;;20.46;100.00;93396.75;5016829;28;20095;-82
2023/10/05 11:19:37;;;;;;;24.35;15.25;;;;;;;20.61;100.00;93389.31;5016668;28;20101;-82
2023/10/05 11:22:06;;;;;;;22.73;14.00;;;;;;;20.87;100.00;93383.72;5017177;28;20049;-82
2023/10/05 11:24:39;;;;;;;22.88;14.82;;;;;;;20.59;100.00;93382.41;5017808;28;20059;-83
2023/10/05 11:27:14;;;;;;;20.13;13.35;;;;;;;20.49;100.00;93369.50;5016063;28;20033;-81
2023/10/05 11:29:43;;;;;;;17.88;13.70;;;;;;;20.31;100.00;93370.72;5016709;28;20034;-82
2023/10/05 11:32:19;;;;;;;16.98;11.63;;;;;;;20.23;100.00;93363.63;5016783;28;20066;-81
2023/10/05 11:34:46;;;;;;;21.17;13.52;;;;;;;20.38;100.00;93357.72;5015158;28;20038;-83
2023/10/05 11:37:17;;;;;;;19.02;13.40;;;;;;;19.97;100.00;93361.91;5016625;28;20406;-82
2023/10/05 11:39:58;;;;;;;19.33;13.63;;;;;;;19.91;100.00;93352.59;5008843;28;20030;-82
2023/10/05 11:42:24;;;;;;;21.60;13.68;;;;;;;19.71;100.00;93352.25;5012389;28;20041;-82
2023/10/05 11:45:00;;;;;;;16.67;12.05;;;;;;;19.87;100.00;93349.03;5016410;28;20033;-83
2023/10/05 11:47:35;;;;;;;24.45;14.43;;;;;;;19.71;100.00;93354.91;5017237;28;20046;-82
2023/10/05 11:50:08;;;;;;;17.55;12.32;;;;;;;20.12;100.00;93353.38;5020666;28;20052;-82
2023/10/05 11:52:39;;;;;;;18.83;12.27;;;;;;;20.44;100.00;93347.66;5017271;28;20041;-82
2023/10/05 11:55:11;;;;;;;16.43;12.23;;;;;;;20.72;100.00;93340.69;5016346;28;20059;-81
2023/10/05 11:57:38;;;;;;;20.10;11.82;;;;;;;20.53;100.00;93338.47;5015716;28;20041;-82
2023/10/05 12:00:05;;;;;;;15.32;10.88;;;;;;;20.83;100.00;93327.75;5016018;28;20026;-81
2023/10/05 12:02:31;;;;;;;15.48;11.55;;;;;;;20.50;100.00;93317.09;5016607;28;20033;-82
2023/10/05 12:04:56;;;;;;;16.60;11.02;;;;;;;20.63;100.00;93317.94;5016091;28;20176;-81